Time;durP1;ratioP1;P1;durP2;ratioP2;P2;SDS_P1;SDS_P2;PMS_P1;PMS_P2;Temp;Humidity;BMP_temperature;BMP_pressure;BME280_temperature;BME280_humidity;BME280_pressure;Samples;Min_cycle;Max_cycle;Signal;HPM_P1;HPM_P2
2022/04/20 00:02:48;;;;;;;59.70;32.40;;;;;;;-0.35;66.59;98420.88;434245;1267;96677;-43
2022/04/20 00:12:55;;;;;;;60.10;33.60;;;;;;;-0.26;66.70;98422.80;433794;1267;111087;-46
2022/04/20 00:23:03;;;;;;;64.10;33.80;;;;;;;-0.16;67.20;98409.83;433587;1267;108873;-45
2022/04/20 00:33:10;;;;;;;85.80;43.70;;;;;;;-0.23;66.89;98405.42;433827;1267;97907;-45
2022/04/20 00:43:18;;;;;;;98.20;46.50;;;;;;;-0.39;67.13;98397.48;433628;1267;111209;-42
2022/04/20 00:53:26;;;;;;;95.10;49.70;;;;;;;-0.56;67.38;98399.80;433687;1267;108780;-43
2022/04/20 01:03:33;;;;;;;91.90;43.90;;;;;;;-0.65;67.79;98400.48;433874;1267;108782;-45
2022/04/20 01:13:41;;;;;;;73.20;37.10;;;;;;;-0.67;67.92;98391.41;433744;1267;97897;-42
2022/04/20 01:23:48;;;;;;;58.40;30.40;;;;;;;-0.54;68.04;98396.80;435036;1258;111073;-43
2022/04/20 01:33:55;;;;;;;52.80;29.30;;;;;;;-0.42;68.11;98395.21;434094;1266;107804;-41
2022/04/20 01:44:02;;;;;;;66.80;37.40;;;;;;;-0.26;68.28;98385.50;434226;1268;97897;-44
2022/04/20 01:54:10;;;;;;;63.40;33.00;;;;;;;-0.36;68.20;98381.71;434296;1268;109207;-41
2022/04/20 02:04:18;;;;;;;57.30;30.60;;;;;;;-0.50;68.48;98378.27;434248;1268;108948;-43
2022/04/20 02:14:26;;;;;;;76.50;34.90;;;;;;;-0.46;68.76;98372.48;434249;1268;97970;-43
2022/04/20 02:24:33;;;;;;;79.40;40.20;;;;;;;-0.32;69.13;98358.55;434113;1268;111128;-41
2022/04/20 02:34:41;;;;;;;73.00;37.10;;;;;;;-0.02;69.37;98346.68;434097;1268;108753;-45
2022/04/20 02:44:48;;;;;;;41.40;23.30;;;;;;;0.48;69.69;98338.12;434169;1267;97903;-45
2022/04/20 02:54:55;;;;;;;38.50;22.10;;;;;;;1.04;69.86;98332.72;434336;1268;111047;-46
2022/04/20 03:05:02;;;;;;;38.60;22.90;;;;;;;1.43;70.03;98331.91;434091;1267;108751;-45
2022/04/20 03:15:11;;;;;;;41.30;23.50;;;;;;;1.66;69.76;98330.05;434184;1268;97964;-45
2022/04/20 03:25:18;;;;;;;43.70;25.10;;;;;;;1.76;69.88;98328.78;434368;1267;111034;-44
2022/04/20 03:35:25;;;;;;;71.40;38.70;;;;;;;1.85;69.84;98331.73;434216;1267;108812;-44
2022/04/20 03:45:32;;;;;;;33.60;20.90;;;;;;;1.93;69.60;98325.86;434318;1267;108787;-40
2022/04/20 03:55:39;;;;;;;28.20;17.50;;;;;;;2.10;69.79;98314.58;434232;1268;97932;-44
2022/04/20 04:05:46;;;;;;;29.50;18.80;;;;;;;2.29;69.47;98308.54;434274;1267;108814;-44
2022/04/20 04:15:54;;;;;;;37.90;22.60;;;;;;;2.37;69.48;98309.42;434272;1267;97528;-42
2022/04/20 04:26:01;;;;;;;36.50;22.50;;;;;;;2.35;69.41;98309.36;434320;1268;97370;-44
2022/04/20 04:56:39;;;;;;;27.90;18.20;;;;;;;2.55;69.33;98302.36;434108;1267;110040;-44
2022/04/20 05:06:47;;;;;;;29.40;17.20;;;;;;;2.74;69.30;98298.54;434045;1268;96709;-44
2022/04/20 05:16:55;;;;;;;27.80;17.80;;;;;;;2.96;69.46;98286.31;434209;1268;108892;-43
2022/04/20 05:27:03;;;;;;;39.40;22.60;;;;;;;3.07;69.44;98283.83;434259;1268;97923;-45
2022/04/20 05:47:35;;;;;;;37.70;22.80;;;;;;;3.13;69.42;98275.63;434105;1266;111547;-44
2022/04/20 05:57:43;;;;;;;60.20;23.30;;;;;;;3.15;69.60;98273.27;434168;1267;108912;-41
2022/04/20 06:07:50;;;;;;;27.10;17.90;;;;;;;3.25;69.47;98260.75;434200;1268;108560;-43
2022/04/20 06:17:57;;;;;;;33.80;17.90;;;;;;;3.43;69.40;98256.59;430209;1267;5590436;-43
2022/04/20 06:28:06;;;;;;;36.90;20.60;;;;;;;3.69;69.50;98248.67;434210;1268;108807;-42
2022/04/20 06:38:14;;;;;;;49.90;26.80;;;;;;;3.89;69.38;98238.33;434231;1268;96607;-43
2022/04/20 07:08:43;;;;;;;26.30;14.50;;;;;;;4.19;69.44;98213.13;434244;1267;109030;-44
2022/04/20 07:18:50;;;;;;;22.30;14.30;;;;;;;4.41;69.24;98197.94;434182;1268;97488;-41
2022/04/20 07:28:56;;;;;;;34.80;18.40;;;;;;;4.48;69.04;98193.61;434335;1268;110901;-44
2022/04/20 07:39:04;;;;;;;37.30;19.90;;;;;;;4.48;69.15;98189.03;434147;1268;108979;-42
2022/04/20 07:59:36;;;;;;;26.20;15.70;;;;;;;4.62;69.07;98180.58;434166;1267;97901;-43
2022/04/20 08:09:43;;;;;;;23.30;14.50;;;;;;;4.78;69.10;98174.16;434339;1267;108684;-44
2022/04/20 08:19:51;;;;;;;34.00;21.30;;;;;;;4.98;69.17;98172.52;434180;1266;96654;-41
2022/04/20 08:29:57;;;;;;;33.70;22.00;;;;;;;5.04;69.49;98180.48;434176;1267;97464;-44
2022/04/20 08:40:11;;;;;;;24.00;16.20;;;;;;;5.10;70.22;98181.56;434292;1268;111047;-40
2022/04/20 08:50:18;;;;;;;23.00;15.70;;;;;;;5.25;70.71;98179.18;434079;1267;108970;-44
2022/04/20 09:00:28;;;;;;;28.90;18.50;;;;;;;5.28;71.37;98172.48;434265;1268;97521;-44
2022/04/20 09:10:37;;;;;;;35.40;22.70;;;;;;;5.27;71.68;98165.59;434195;1267;111032;-42
2022/04/20 09:20:47;;;;;;;26.10;18.40;;;;;;;5.38;72.57;98160.46;434298;1267;108757;-44
2022/04/20 09:30:57;;;;;;;26.40;18.70;;;;;;;5.45;72.93;98151.84;434164;1267;97879;-41
2022/04/20 09:51:15;;;;;;;31.10;22.70;;;;;;;5.73;73.13;98135.94;434010;1267;108869;-44
2022/04/20 10:01:27;;;;;;;31.40;19.80;;;;;;;5.78;73.72;98127.63;434327;1267;97052;-46
2022/04/20 10:11:37;;;;;;;22.00;16.30;;;;;;;5.85;74.03;98121.50;434218;1268;111073;-44
2022/04/20 10:31:54;;;;;;;21.00;16.20;;;;;;;6.08;73.92;98127.70;434222;1267;97904;-41
2022/04/20 10:42:19;;;;;;;26.60;19.10;;;;;;;5.91;74.10;98137.81;434203;1267;108467;-45
2022/04/20 10:52:25;;;;;;;28.30;22.20;;;;;;;5.67;74.22;98142.48;434133;1268;97068;-45
2022/04/20 11:02:47;;;;;;;23.20;17.30;;;;;;;5.53;74.32;98147.33;434100;1265;111846;-43
2022/04/20 11:24:03;;;;;;;18.80;14.10;;;;;;;5.36;74.63;98147.08;434176;1267;97889;-41
2022/04/20 11:34:12;;;;;;;23.80;17.70;;;;;;;5.38;74.58;98151.23;434127;1268;108945;-42
2022/04/20 11:54:29;;;;;;;28.10;18.20;;;;;;;5.33;74.88;98148.73;434302;1267;110964;-40
2022/04/20 12:04:39;;;;;;;20.70;14.60;;;;;;;5.43;74.95;98142.21;434327;1268;108950;-45
2022/04/20 12:25:04;;;;;;;17.20;11.20;;;;;;;6.04;75.08;98126.15;434374;1266;111395;-41
2022/04/20 12:35:11;;;;;;;15.70;10.80;;;;;;;6.28;74.77;98115.04;434177;1266;107349;-42
2022/04/20 12:45:23;;;;;;;18.20;13.80;;;;;;;6.37;75.00;98118.96;434138;1267;97913;-43
2022/04/20 12:55:42;;;;;;;15.40;11.30;;;;;;;6.44;75.13;98123.55;434353;1265;108868;-41
2022/04/20 13:05:48;;;;;;;13.60;10.00;;;;;;;6.21;75.32;98124.91;434190;1266;97484;-41
2022/04/20 13:15:56;;;;;;;6.60;5.80;;;;;;;6.11;75.48;98134.17;434312;1266;110985;-42
2022/04/20 13:46:34;;;;;;;16.90;11.90;;;;;;;5.88;75.44;98151.66;434231;1267;108855;-43
2022/04/20 13:56:42;;;;;;;15.30;10.20;;;;;;;5.77;75.50;98149.10;434360;1266;97906;-41
2022/04/20 14:06:50;;;;;;;8.50;6.40;;;;;;;5.74;75.48;98151.52;434340;1267;112365;-41
2022/04/20 14:16:57;;;;;;;7.80;5.80;;;;;;;5.76;75.58;98157.10;434171;1267;108209;-41
2022/04/20 14:37:30;;;;;;;7.90;6.80;;;;;;;5.65;75.64;98167.12;434268;1266;108844;-44
2022/04/20 14:47:38;;;;;;;10.70;7.20;;;;;;;5.52;75.90;98179.41;434375;1267;97936;-41
2022/04/20 14:57:45;;;;;;;16.10;12.90;;;;;;;5.32;76.72;98183.67;434354;1268;111127;-45
2022/04/20 15:07:54;;;;;;;13.70;10.20;;;;;;;5.27;76.44;98174.14;434204;1266;108761;-44
2022/04/20 15:28:05;;;;;;;20.70;12.80;;;;;;;5.41;76.78;98186.46;434296;1267;111220;-45
2022/04/20 15:38:12;;;;;;;16.80;12.50;;;;;;;5.48;76.80;98171.69;434212;1267;108808;-41
2022/04/20 15:48:21;;;;;;;20.80;13.60;;;;;;;5.50;76.88;98167.08;434190;1266;97497;-44
2022/04/20 16:08:53;;;;;;;29.90;17.50;;;;;;;5.68;76.85;98180.91;434196;1265;97507;-43
2022/04/20 16:19:01;;;;;;;21.30;15.20;;;;;;;5.56;76.80;98201.22;434366;1266;111100;-44
2022/04/20 16:29:10;;;;;;;34.50;22.20;;;;;;;5.51;76.82;98208.46;434254;1267;108786;-43
2022/04/20 16:39:17;;;;;;;76.20;40.50;;;;;;;5.44;76.60;98212.20;434389;1266;96698;-45
2022/04/20 16:49:24;;;;;;;29.80;18.10;;;;;;;5.49;76.90;98222.95;434300;1266;108876;-41
2022/04/20 16:59:32;;;;;;;19.20;13.80;;;;;;;5.59;76.74;98224.88;434139;1266;97919;-43
2022/04/20 17:09:42;;;;;;;80.40;40.20;;;;;;;5.68;76.83;98227.00;434278;1267;111262;-44
2022/04/20 17:19:49;;;;;;;104.10;53.30;;;;;;;5.62;76.80;98230.13;434238;1266;108462;-40
2022/04/20 17:29:56;;;;;;;43.40;25.30;;;;;;;5.45;76.81;98235.71;434307;1268;96596;-41
2022/04/20 17:40:04;;;;;;;66.40;34.00;;;;;;;5.35;76.93;98238.88;434207;1267;107597;-41
2022/04/20 17:50:10;;;;;;;31.60;19.60;;;;;;;5.35;76.87;98234.04;434191;1268;107005;-41
2022/04/20 18:00:19;;;;;;;35.80;22.30;;;;;;;5.46;76.80;98224.02;434270;1267;98216;-44
2022/04/20 18:10:29;;;;;;;36.30;21.20;;;;;;;5.45;76.74;98212.96;434137;1266;108760;-43
2022/04/20 18:20:37;;;;;;;46.30;28.90;;;;;;;5.40;76.78;98205.38;430243;1266;5453682;-43
2022/04/20 18:30:44;;;;;;;33.00;20.80;;;;;;;5.37;76.97;98204.30;434239;1267;110632;-41
2022/04/20 18:50:58;;;;;;;42.00;27.80;;;;;;;5.23;77.26;98212.46;434167;1265;96819;-44
2022/04/20 19:01:05;;;;;;;25.80;17.50;;;;;;;5.20;77.26;98209.91;434460;1267;106806;-42
2022/04/20 19:11:11;;;;;;;50.00;27.40;;;;;;;5.23;77.32;98206.54;434115;1266;97995;-42
2022/04/20 19:21:18;;;;;;;18.20;12.80;;;;;;;5.22;77.20;98199.20;434310;1267;111020;-44
2022/04/20 19:31:26;;;;;;;15.40;11.00;;;;;;;5.13;77.42;98196.49;434221;1268;108773;-42
2022/04/20 19:41:33;;;;;;;16.50;10.60;;;;;;;5.10;77.69;98205.55;434259;1268;97928;-42
2022/04/20 20:11:55;;;;;;;31.90;19.40;;;;;;;5.18;77.92;98213.66;434304;1266;110965;-43
2022/04/20 20:22:02;;;;;;;28.90;19.60;;;;;;;5.02;77.79;98220.31;434198;1265;108776;-45
2022/04/20 20:32:10;;;;;;;29.00;17.80;;;;;;;4.96;77.91;98222.58;434330;1266;108833;-45
2022/04/20 20:42:18;;;;;;;23.80;15.30;;;;;;;4.98;77.82;98209.77;434257;1266;97471;-43
2022/04/20 20:52:26;;;;;;;27.70;16.30;;;;;;;5.05;78.00;98203.06;434239;1268;108686;-42
2022/04/20 21:02:33;;;;;;;24.00;15.60;;;;;;;5.06;78.02;98211.45;434319;1266;98171;-42
2022/04/20 21:12:40;;;;;;;33.90;21.20;;;;;;;5.11;78.14;98221.10;434338;1266;111267;-41
2022/04/20 21:22:48;;;;;;;39.20;23.90;;;;;;;5.15;78.14;98225.09;434282;1268;108061;-44
2022/04/20 21:32:56;;;;;;;36.90;21.80;;;;;;;5.03;78.26;98227.73;434209;1268;97497;-43
2022/04/20 21:43:00;;;;;;;36.40;23.00;;;;;;;4.94;78.26;98231.69;434325;1266;111319;-45
2022/04/20 21:53:08;;;;;;;34.90;20.60;;;;;;;4.90;78.32;98229.63;434280;1268;96621;-41
2022/04/20 22:13:37;;;;;;;24.10;16.60;;;;;;;5.08;78.41;98221.71;434260;1268;111086;-44
2022/04/20 22:23:44;;;;;;;29.10;17.80;;;;;;;5.09;78.34;98215.34;434371;1268;108484;-44
2022/04/20 22:33:51;;;;;;;32.90;19.20;;;;;;;5.20;78.44;98204.84;434170;1267;100042;-45
2022/04/20 22:43:59;;;;;;;36.10;22.10;;;;;;;5.24;78.50;98214.39;434351;1266;108847;-42
2022/04/20 22:54:08;;;;;;;37.90;23.50;;;;;;;5.14;78.51;98203.04;434329;1268;96648;-43
2022/04/20 23:04:15;;;;;;;40.10;26.20;;;;;;;5.00;78.48;98190.58;434358;1268;111623;-41
2022/04/20 23:14:23;;;;;;;27.60;19.50;;;;;;;4.89;78.37;98189.05;434271;1265;108874;-41
2022/04/20 23:34:52;;;;;;;32.10;19.20;;;;;;;4.98;78.40;98175.86;434362;1268;110922;-43
2022/04/20 23:44:59;;;;;;;30.90;22.20;;;;;;;5.00;78.42;98180.58;434420;1266;108822;-44
2022/04/20 23:55:08;;;;;;;43.00;26.20;;;;;;;4.99;78.59;98181.59;434295;1267;97923;-44
